createdAt,value
2022-10-08T00:00:53.935Z,95.99
2022-10-08T00:13:14.313Z,94.58
2022-10-08T00:19:16.417Z,95.10
2022-10-08T00:25:18.869Z,93.39
2022-10-08T00:31:29.254Z,92.58
2022-10-08T00:44:09.205Z,91.62
2022-10-08T00:50:43.838Z,93.85
2022-10-08T00:56:51.197Z,93.62
2022-10-08T01:02:54.198Z,93.53
2022-10-08T01:09:19.047Z,94.52
2022-10-08T01:15:33.582Z,95.47
2022-10-08T01:22:29.680Z,96.06
2022-10-08T01:28:56.424Z,95.95
2022-10-08T01:35:04.881Z,95.74
2022-10-08T01:41:10.350Z,97.28
2022-10-08T01:47:23.361Z,97.83
2022-10-08T01:53:33.435Z,98.91
2022-10-08T01:59:43.474Z,98.93
2022-10-08T02:05:50.613Z,100.00
2022-10-08T02:11:53.509Z,99.64
2022-10-08T02:18:22.842Z,100.00
2022-10-08T02:24:38.060Z,100.00
2022-10-08T02:31:09.243Z,100.00
2022-10-08T02:37:23.361Z,99.85
2022-10-08T02:43:30.717Z,100.00
2022-10-08T02:49:39.109Z,100.00
2022-10-08T02:56:08.523Z,99.65
2022-10-08T03:02:17.740Z,99.41
2022-10-08T03:08:21.417Z,100.00
2022-10-08T03:14:25.104Z,100.00
2022-10-08T03:20:27.602Z,100.00
2022-10-08T03:26:30.234Z,100.00
2022-10-08T03:32:32.102Z,100.00
2022-10-08T03:38:34.825Z,100.00
2022-10-08T03:44:36.770Z,100.00
2022-10-08T03:50:38.828Z,96.09
2022-10-08T03:56:40.728Z,96.35
2022-10-08T04:02:47.075Z,97.04
2022-10-08T04:08:49.520Z,98.79
2022-10-08T04:14:51.457Z,100.00
2022-10-08T04:21:02.143Z,100.00
2022-10-08T04:27:04.163Z,100.00
2022-10-08T04:33:06.046Z,98.99
2022-10-08T04:39:08.097Z,99.21
2022-10-08T04:45:10.512Z,98.52
2022-10-08T04:51:12.429Z,96.98
2022-10-08T04:57:15.501Z,97.82
2022-10-08T05:03:17.527Z,100.00
2022-10-08T05:09:19.464Z,100.00
2022-10-08T05:15:21.358Z,99.67
2022-10-08T05:21:27.454Z,98.68
2022-10-08T05:33:39.619Z,97.51
2022-10-08T05:39:41.516Z,98.71
2022-10-08T05:45:51.217Z,99.57
2022-10-08T05:51:53.171Z,98.36
2022-10-08T05:57:55.060Z,97.30
2022-10-08T06:04:04.281Z,91.44
2022-10-08T06:10:10.009Z,92.11
2022-10-08T06:22:28.601Z,94.41
2022-10-08T06:28:31.060Z,94.29
2022-10-08T06:34:32.948Z,94.77
2022-10-08T06:40:40.128Z,93.72
2022-10-08T06:46:43.010Z,93.25
2022-10-08T06:52:46.069Z,92.39
2022-10-08T06:58:48.464Z,92.39
2022-10-08T07:04:50.339Z,92.53
2022-10-08T07:10:52.864Z,93.23
2022-10-08T07:16:54.832Z,93.34
2022-10-08T07:22:56.753Z,93.67
2022-10-08T07:29:06.319Z,93.16
2022-10-08T07:35:09.832Z,93.04
2022-10-08T07:41:13.102Z,93.28
2022-10-08T07:47:15.091Z,92.61
2022-10-08T07:53:17.068Z,92.58
2022-10-08T07:59:18.960Z,92.25
2022-10-08T08:05:20.906Z,90.89
2022-10-08T08:11:24.894Z,88.30
2022-10-08T08:17:26.823Z,86.83
2022-10-08T08:23:34.282Z,88.27
2022-10-08T08:29:36.181Z,89.02
2022-10-08T08:35:38.090Z,89.76
2022-10-08T08:42:00.237Z,91.62
2022-10-08T08:48:21.808Z,92.71
2022-10-08T08:54:24.284Z,92.10
2022-10-08T09:00:39.172Z,90.48
2022-10-08T09:06:41.727Z,90.95
2022-10-08T09:12:44.875Z,90.99
2022-10-08T09:18:50.331Z,91.17
2022-10-08T09:25:11.521Z,90.78
2022-10-08T09:31:40.459Z,89.66
2022-10-08T09:37:47.415Z,90.62
2022-10-08T09:44:08.192Z,89.55
2022-10-08T09:50:20.266Z,89.71
2022-10-08T09:56:29.459Z,90.35
2022-10-08T10:02:38.399Z,91.60
2022-10-08T10:08:53.678Z,90.65
2022-10-08T10:15:09.255Z,90.21
2022-10-08T10:21:19.051Z,86.51
2022-10-08T10:27:41.035Z,83.10
2022-10-08T10:34:00.287Z,82.55
2022-10-08T10:40:31.145Z,78.65
2022-10-08T10:46:44.895Z,76.69
2022-10-08T10:53:19.147Z,75.22
2022-10-08T10:59:46.547Z,67.32
2022-10-08T11:06:04.293Z,62.36
2022-10-08T11:12:39.992Z,64.96
2022-10-08T11:19:04.308Z,68.05
2022-10-08T11:26:09.931Z,61.33
2022-10-08T11:32:10.318Z,59.33
2022-10-08T11:38:40.373Z,61.45
2022-10-08T11:44:42.411Z,56.23
2022-10-08T11:50:44.346Z,56.51
2022-10-08T11:56:51.694Z,62.34
2022-10-08T12:02:55.723Z,61.67
2022-10-08T12:09:04.821Z,58.54
2022-10-08T12:15:27.742Z,55.62
2022-10-08T12:21:29.522Z,62.07
2022-10-08T12:27:35.218Z,65.24
2022-10-08T12:33:37.140Z,65.47
2022-10-08T12:39:44.940Z,67.75
2022-10-08T12:46:28.016Z,68.74
2022-10-08T12:52:36.437Z,69.40
2022-10-08T12:58:39.177Z,64.50
2022-10-08T13:04:46.416Z,57.98
2022-10-08T13:10:48.265Z,55.45
2022-10-08T13:16:50.158Z,52.64
2022-10-08T13:22:52.608Z,50.37
2022-10-08T13:29:26.467Z,55.74
2022-10-08T13:35:29.211Z,51.60
2022-10-08T13:41:31.149Z,50.42
2022-10-08T13:47:33.133Z,51.51
2022-10-08T13:53:35.581Z,48.94
2022-10-08T13:59:38.055Z,50.85
2022-10-08T14:05:46.981Z,52.22
2022-10-08T14:11:55.503Z,56.89
2022-10-08T14:17:57.408Z,60.55
2022-10-08T14:23:59.314Z,61.50
2022-10-08T14:30:01.259Z,59.51
2022-10-08T14:36:18.521Z,57.21
2022-10-08T14:42:20.423Z,55.11
2022-10-08T14:48:22.341Z,53.90
2022-10-08T14:54:25.827Z,49.14
2022-10-08T15:00:31.387Z,47.77
2022-10-08T15:06:34.448Z,46.73
2022-10-08T15:12:36.409Z,48.65
2022-10-08T15:18:38.897Z,52.65
2022-10-08T15:24:41.356Z,55.65
2022-10-08T15:30:44.313Z,53.62
2022-10-08T15:36:46.484Z,51.60
2022-10-08T15:42:51.603Z,49.80
2022-10-08T15:48:57.005Z,49.60
2022-10-08T15:55:08.372Z,50.72
2022-10-08T16:01:14.038Z,52.15
2022-10-08T16:07:16.886Z,55.68
2022-10-08T16:13:18.783Z,59.27
2022-10-08T16:19:24.615Z,61.38
2022-10-08T16:25:26.671Z,63.07
2022-10-08T16:31:32.352Z,63.50
2022-10-08T16:37:34.241Z,66.04
2022-10-08T16:43:36.164Z,68.93
2022-10-08T16:49:38.134Z,71.43
2022-10-08T16:55:41.603Z,72.02
2022-10-08T17:01:46.786Z,72.69
2022-10-08T17:07:48.687Z,72.95
2022-10-08T17:13:54.241Z,75.15
2022-10-08T17:19:56.130Z,75.81
2022-10-08T17:25:59.144Z,75.94
2022-10-08T17:32:03.017Z,76.47
2022-10-08T17:38:04.921Z,77.05
2022-10-08T17:44:09.715Z,77.61
2022-10-08T17:50:11.662Z,78.33
2022-10-08T17:56:14.899Z,80.24
2022-10-08T18:02:16.873Z,82.20
2022-10-08T18:08:19.048Z,82.43
2022-10-08T18:14:22.049Z,83.82
2022-10-08T18:20:23.939Z,83.96
2022-10-08T18:26:32.221Z,84.99
2022-10-08T18:32:34.107Z,85.53
2022-10-08T18:38:36.100Z,85.44
2022-10-08T18:44:37.999Z,85.53
2022-10-08T18:50:39.880Z,86.52
2022-10-08T18:56:42.115Z,87.60
2022-10-08T19:02:44.075Z,87.23
2022-10-08T19:08:46.971Z,88.70
2022-10-08T19:14:49.538Z,88.61
2022-10-08T19:20:51.447Z,89.74
2022-10-08T19:26:54.785Z,89.37
2022-10-08T19:32:56.739Z,88.70
2022-10-08T19:39:02.789Z,88.00
2022-10-08T19:45:05.284Z,88.50
2022-10-08T19:51:12.072Z,88.06
2022-10-08T19:57:14.129Z,88.56
2022-10-08T20:03:16.183Z,88.19
2022-10-08T20:09:18.176Z,89.80
2022-10-08T20:15:20.739Z,90.63
2022-10-08T20:21:23.557Z,93.83
2022-10-08T20:27:25.463Z,91.23
2022-10-08T20:33:27.392Z,89.27
2022-10-08T20:39:29.740Z,90.84
2022-10-08T20:45:31.642Z,93.19
2022-10-08T20:51:34.405Z,91.62
2022-10-08T20:57:36.326Z,90.19
2022-10-08T21:03:43.572Z,90.98
2022-10-08T21:09:45.494Z,92.39
2022-10-08T21:15:48.020Z,94.04
2022-10-08T21:21:50.252Z,94.16
2022-10-08T21:27:52.102Z,94.51
2022-10-08T21:33:54.832Z,93.44
2022-10-08T21:39:56.964Z,94.05
2022-10-08T21:46:01.077Z,97.17
2022-10-08T21:52:03.119Z,96.63
2022-10-08T21:58:04.979Z,97.21
2022-10-08T22:04:09.343Z,96.00
2022-10-08T22:10:11.217Z,96.23
2022-10-08T22:16:16.121Z,96.22
2022-10-08T22:22:18.061Z,96.12
2022-10-08T22:28:20.215Z,96.04
2022-10-08T22:34:22.181Z,97.61
2022-10-08T22:40:24.118Z,96.57
2022-10-08T22:46:34.790Z,97.41
2022-10-08T22:52:37.454Z,98.08
2022-10-08T22:58:39.549Z,97.32
2022-10-08T23:04:41.420Z,97.49
2022-10-08T23:11:12.119Z,98.47
2022-10-08T23:17:14.039Z,99.70
2022-10-08T23:23:15.931Z,97.46
2022-10-08T23:29:17.785Z,96.86
2022-10-08T23:35:20.579Z,95.51
2022-10-08T23:41:24.287Z,96.67
2022-10-08T23:47:29.561Z,96.77
2022-10-08T23:53:32.482Z,96.15
2022-10-08T23:59:34.405Z,97.52
